Weather at Highwood Livestock Auction Airport [CLOSED]

Public forecast

Using degrees Celsius for public forecast. Weather courtesy of forecast.io.

Closest aviation weather report (METAR) to Highwood Livestock Auction Airport

Closest report is Calgary International Airport, 28.8 nm (53.3 km) NNW.

2024/05/24 01:16 (retrieved 30 minutes ago)

CYYC 240116Z 03007KT 15SM -SHRA BKN024CB BKN081 BKN250 09/03 A2989 RMK CB7AC1CI1 AC TR CI TR CB ALQDS MOVG S SLP148

Closest aviation forecast (TAF) to Highwood Livestock Auction Airport

Forecast is more than 6 hours old.

Closest forecast is Edmonton (CFB Namao) Heliport, 181.7 nm (336.6 km) N.

2024/05/23 18:06 Ammendment (retrieved 8 hours ago)

TAF AMD TAF AMD CYED 232103Z 2318/2406 CNL RMK END OF FLY PROGRAM NXT FCST BY 240000Z